Time;durP1;ratioP1;P1;durP2;ratioP2;P2;SDS_P1;SDS_P2;PMS_P1;PMS_P2;Temp;Humidity;BMP_temperature;BMP_pressure;BME280_temperature;BME280_humidity;BME280_pressure;Samples;Min_cycle;Max_cycle;Signal;HPM_P1;HPM_P2
2022/07/10 00:00:10;;;;;;;1.87;0.65;;;15.30;99.90;;;;;;4445110;32;20398;-65
2022/07/10 00:02:36;;;;;;;0.50;0.50;;;15.20;99.90;;;;;;4444437;32;20355;-65
2022/07/10 00:05:03;;;;;;;0.50;0.50;;;15.20;99.90;;;;;;4444984;32;20053;-65
2022/07/10 00:07:28;;;;;;;0.43;0.43;;;15.30;99.90;;;;;;4445068;32;20115;-65
2022/07/10 00:09:54;;;;;;;0.65;0.30;;;15.20;99.90;;;;;;4444423;32;20061;-65
2022/07/10 00:12:19;;;;;;;0.20;0.20;;;15.30;99.90;;;;;;4444636;32;20072;-65
2022/07/10 00:14:45;;;;;;;0.60;0.60;;;15.30;99.90;;;;;;4444751;32;20070;-65
2022/07/10 00:17:10;;;;;;;0.20;0.20;;;15.30;99.90;;;;;;4431354;32;20434;-65
2022/07/10 00:19:36;;;;;;;1.65;0.40;;;15.30;99.90;;;;;;4434466;32;20610;-65
2022/07/10 00:22:01;;;;;;;0.30;0.30;;;15.40;99.90;;;;;;4417523;32;20069;-65
2022/07/10 00:24:27;;;;;;;0.30;0.30;;;15.30;99.90;;;;;;4383662;32;20074;-65
2022/07/10 00:26:52;;;;;;;0.40;0.40;;;15.30;99.90;;;;;;4429027;32;20119;-65
2022/07/10 00:29:18;;;;;;;0.35;0.35;;;15.30;99.90;;;;;;4429746;32;20523;-65
2022/07/10 00:31:43;;;;;;;0.20;0.20;;;15.30;99.90;;;;;;4429159;32;20081;-65
2022/07/10 00:34:09;;;;;;;0.52;0.40;;;15.20;99.90;;;;;;4415873;32;20066;-65
2022/07/10 00:36:34;;;;;;;0.35;0.35;;;15.30;99.90;;;;;;4429230;32;20555;-65
2022/07/10 00:38:59;;;;;;;0.30;0.30;;;15.30;99.90;;;;;;4429458;32;20073;-65
2022/07/10 00:41:25;;;;;;;0.10;0.10;;;15.30;99.90;;;;;;4428942;32;20058;-65
2022/07/10 00:43:53;;;;;;;0.57;0.50;;;15.30;99.90;;;;;;4429189;32;20058;-65
2022/07/10 00:46:20;;;;;;;0.60;0.60;;;15.30;99.90;;;;;;4416936;32;20062;-65
2022/07/10 00:48:47;;;;;;;5.43;1.15;;;15.20;99.90;;;;;;4432114;32;20088;-65
2022/07/10 00:51:13;;;;;;;0.35;0.35;;;15.20;99.90;;;;;;4424660;32;20125;-65
2022/07/10 00:53:39;;;;;;;1.17;0.40;;;15.20;99.90;;;;;;4426670;32;20111;-65
2022/07/10 00:56:06;;;;;;;0.20;0.20;;;15.20;99.90;;;;;;4441293;32;20065;-65
2022/07/10 00:58:33;;;;;;;1.75;0.70;;;15.20;99.90;;;;;;4447012;32;20074;-65
2022/07/10 01:00:59;;;;;;;0.30;0.30;;;15.20;99.90;;;;;;4446376;32;20492;-65
2022/07/10 01:03:25;;;;;;;1.23;0.35;;;15.20;99.90;;;;;;4446926;32;20054;-65
2022/07/10 01:05:50;;;;;;;0.30;0.30;;;15.10;99.90;;;;;;4432973;32;20624;-65
2022/07/10 01:08:16;;;;;;;0.47;0.47;;;15.10;99.90;;;;;;4446523;32;20065;-65
2022/07/10 01:10:42;;;;;;;0.20;0.20;;;15.10;99.90;;;;;;4445495;32;20065;-65
2022/07/10 01:13:08;;;;;;;0.75;0.40;;;15.20;99.90;;;;;;4446056;32;20077;-65
2022/07/10 01:15:35;;;;;;;3.83;0.75;;;15.20;99.90;;;;;;4442446;32;20061;-65
2022/07/10 01:18:01;;;;;;;0.30;0.30;;;15.10;99.90;;;;;;4431461;32;20061;-65
2022/07/10 01:20:31;;;;;;;8.98;2.50;;;15.10;99.90;;;;;;4440934;32;20569;-65
2022/07/10 01:22:56;;;;;;;0.40;0.40;;;15.10;99.90;;;;;;4417902;32;20416;-65
2022/07/10 01:25:22;;;;;;;0.40;0.40;;;15.10;99.90;;;;;;4407333;32;20065;-65
2022/07/10 01:27:47;;;;;;;0.40;0.40;;;15.00;99.90;;;;;;4430429;32;20073;-65
2022/07/10 01:30:13;;;;;;;0.90;0.40;;;14.90;99.90;;;;;;4431275;32;20412;-65
2022/07/10 01:32:40;;;;;;;12.48;0.35;;;14.80;99.90;;;;;;4428061;32;81200;-65
2022/07/10 01:35:06;;;;;;;0.30;0.30;;;14.80;99.90;;;;;;4416524;32;20050;-65
2022/07/10 01:37:32;;;;;;;0.30;0.30;;;14.80;99.90;;;;;;4430292;32;20046;-65
2022/07/10 01:39:57;;;;;;;0.40;0.40;;;14.80;99.90;;;;;;4429901;32;20375;-65
2022/07/10 01:42:22;;;;;;;0.68;0.25;;;14.90;99.90;;;;;;4430457;32;20053;-65
2022/07/10 01:44:48;;;;;;;1.90;1.15;;;14.80;99.90;;;;;;4434209;32;20061;-65
2022/07/10 01:47:13;;;;;;;0.20;0.20;;;14.80;99.90;;;;;;4446002;32;20428;-65
2022/07/10 01:49:39;;;;;;;0.30;0.30;;;14.80;99.90;;;;;;4424161;32;20097;-65
2022/07/10 01:52:05;;;;;;;0.30;0.30;;;14.70;99.90;;;;;;4414819;32;20124;-64
2022/07/10 01:54:30;;;;;;;0.73;0.73;;;14.80;99.90;;;;;;4413611;32;20551;-64
2022/07/10 01:56:56;;;;;;;0.20;0.20;;;14.80;99.90;;;;;;4430415;32;20074;-64
2022/07/10 01:59:21;;;;;;;5.43;0.60;;;14.80;99.90;;;;;;4430171;32;20057;-65
2022/07/10 02:01:47;;;;;;;0.20;0.20;;;14.80;99.90;;;;;;4430706;32;20529;-64
2022/07/10 02:04:44;;;;;;;0.20;0.20;;;14.80;99.90;;;;;;4430883;32;20061;-64
2022/07/10 02:06:57;;;;;;;0.20;0.20;;;14.70;99.90;;;;;;4428878;32;20062;-64
2022/07/10 02:09:24;;;;;;;1.25;1.15;;;14.70;99.90;;;;;;4429744;32;20077;-65
2022/07/10 02:11:49;;;;;;;0.55;0.55;;;14.70;99.90;;;;;;4417132;32;20542;-65
2022/07/10 02:14:14;;;;;;;0.30;0.30;;;14.70;99.90;;;;;;4430569;32;20057;-65
2022/07/10 02:16:40;;;;;;;5.95;0.47;;;14.70;99.90;;;;;;4443803;32;20112;-65
2022/07/10 02:19:05;;;;;;;0.40;0.40;;;14.70;99.90;;;;;;4427433;32;20085;-65
2022/07/10 02:21:31;;;;;;;0.30;0.30;;;14.70;99.90;;;;;;4419115;32;20525;-64
2022/07/10 02:23:56;;;;;;;0.70;0.70;;;14.70;99.90;;;;;;4408669;32;20077;-65
2022/07/10 02:26:22;;;;;;;0.28;0.28;;;14.80;99.90;;;;;;4428208;32;20065;-65
2022/07/10 02:28:47;;;;;;;1.35;0.50;;;14.70;99.90;;;;;;4431277;32;20553;-65
2022/07/10 02:31:13;;;;;;;0.20;0.20;;;14.70;99.90;;;;;;4430115;32;20065;-65
2022/07/10 02:33:38;;;;;;;0.20;0.20;;;14.60;99.90;;;;;;4430677;32;20054;-65
2022/07/10 02:36:04;;;;;;;0.57;0.57;;;14.50;99.90;;;;;;4430110;32;20066;-65
2022/07/10 02:38:30;;;;;;;0.20;0.20;;;14.60;99.90;;;;;;4416636;32;20078;-65
2022/07/10 02:40:55;;;;;;;0.10;0.10;;;14.60;99.90;;;;;;4430092;32;20530;-65
2022/07/10 02:43:21;;;;;;;0.10;0.10;;;14.60;99.90;;;;;;4430779;32;20082;-65
2022/07/10 02:45:46;;;;;;;0.32;0.32;;;14.60;99.90;;;;;;4443945;32;20093;-65
2022/07/10 02:48:12;;;;;;;1.55;0.50;;;14.60;99.90;;;;;;4444688;32;20073;-65
2022/07/10 02:50:37;;;;;;;0.20;0.20;;;14.50;99.90;;;;;;4442649;32;20061;-64
2022/07/10 02:53:03;;;;;;;4.47;0.75;;;14.60;99.90;;;;;;4423517;32;20529;-65
2022/07/10 02:55:31;;;;;;;0.30;0.30;;;14.60;99.90;;;;;;4435273;32;20070;-65
2022/07/10 02:57:58;;;;;;;0.20;0.20;;;14.60;99.90;;;;;;4445072;32;20428;-65
2022/07/10 03:00:23;;;;;;;0.20;0.20;;;14.50;99.90;;;;;;4445443;32;20086;-65
2022/07/10 03:02:49;;;;;;;0.20;0.20;;;14.50;99.90;;;;;;4445975;32;20057;-65
2022/07/10 03:05:14;;;;;;;0.30;0.30;;;14.50;99.90;;;;;;4444484;32;20080;-65
2022/07/10 03:07:40;;;;;;;1.87;0.77;;;14.50;99.90;;;;;;4445814;32;20065;-65
2022/07/10 03:10:05;;;;;;;0.52;0.52;;;14.50;99.90;;;;;;4444207;32;20069;-65
2022/07/10 03:12:31;;;;;;;0.20;0.20;;;14.50;99.90;;;;;;4445269;32;20112;-65
2022/07/10 03:14:59;;;;;;;2.83;0.98;;;14.50;99.90;;;;;;4434622;32;20070;-65
2022/07/10 03:17:24;;;;;;;1.20;0.75;;;14.40;99.90;;;;;;4428746;32;20477;-65
2022/07/10 03:19:50;;;;;;;0.30;0.30;;;14.40;99.90;;;;;;4429047;32;20069;-65
2022/07/10 03:22:15;;;;;;;0.50;0.50;;;14.30;99.90;;;;;;4418023;32;20560;-65
2022/07/10 03:24:43;;;;;;;0.20;0.20;;;14.40;99.90;;;;;;4428084;32;20117;-65
2022/07/10 03:27:08;;;;;;;0.35;0.35;;;14.40;99.90;;;;;;4445724;32;20236;-65
2022/07/10 03:29:34;;;;;;;0.30;0.30;;;14.40;99.90;;;;;;4444952;32;20074;-65
2022/07/10 03:31:59;;;;;;;0.28;0.28;;;14.30;99.90;;;;;;4445402;32;20480;-65
2022/07/10 03:34:25;;;;;;;3.25;0.35;;;14.20;99.90;;;;;;4444868;32;20453;-65
2022/07/10 03:36:51;;;;;;;0.20;0.20;;;14.30;99.90;;;;;;4444966;32;20350;-65
2022/07/10 03:39:17;;;;;;;0.22;0.22;;;14.30;99.90;;;;;;4444618;32;20058;-65
2022/07/10 03:41:42;;;;;;;0.30;0.30;;;14.30;99.90;;;;;;4444182;32;20061;-65
2022/07/10 03:44:08;;;;;;;0.20;0.20;;;14.20;99.90;;;;;;4429641;32;20505;-65
2022/07/10 03:46:33;;;;;;;1.15;0.68;;;14.30;99.90;;;;;;4429674;32;20066;-65
2022/07/10 03:48:58;;;;;;;0.30;0.30;;;14.30;99.90;;;;;;4428976;32;20081;-65
2022/07/10 03:51:25;;;;;;;0.95;0.50;;;14.20;99.90;;;;;;4419302;32;20215;-65
2022/07/10 03:53:50;;;;;;;0.37;0.37;;;14.20;99.90;;;;;;4396194;32;20058;-64
2022/07/10 03:58:16;;;;;;;0.28;0.28;;;14.10;99.90;;;;;;4437808;32;20433;-65
2022/07/10 03:59:01;;;;;;;0.20;0.20;;;14.20;99.90;;;;;;4443020;32;20578;-65
2022/07/10 04:01:26;;;;;;;0.20;0.20;;;14.20;99.90;;;;;;4444824;32;20053;-65
2022/07/10 04:03:52;;;;;;;0.28;0.28;;;14.20;99.90;;;;;;4443119;32;20505;-65
2022/07/10 04:06:17;;;;;;;0.22;0.22;;;14.10;99.90;;;;;;4445010;32;20073;-65
2022/07/10 04:08:43;;;;;;;0.47;0.30;;;14.10;99.90;;;;;;4444632;32;20108;-65
2022/07/10 04:11:08;;;;;;;0.30;0.30;;;14.20;99.90;;;;;;4444695;32;20555;-65
2022/07/10 04:13:34;;;;;;;0.47;0.40;;;14.20;99.90;;;;;;4442228;32;20065;-65
2022/07/10 04:15:59;;;;;;;0.20;0.20;;;14.20;99.90;;;;;;4444747;32;20077;-65
2022/07/10 04:18:25;;;;;;;0.20;0.20;;;14.20;99.90;;;;;;4444318;32;20074;-65
2022/07/10 04:20:50;;;;;;;0.20;0.20;;;14.20;99.90;;;;;;4440683;32;20078;-65
2022/07/10 04:23:15;;;;;;;0.30;0.30;;;14.30;99.90;;;;;;4425018;32;20355;-65
2022/07/10 04:25:41;;;;;;;0.35;0.35;;;14.20;99.90;;;;;;4440229;32;20128;-65
2022/07/10 04:28:06;;;;;;;0.20;0.20;;;14.20;99.90;;;;;;4447073;32;20057;-65
2022/07/10 04:30:32;;;;;;;0.20;0.20;;;14.20;99.90;;;;;;4447037;32;20077;-65
2022/07/10 04:32:57;;;;;;;0.45;0.45;;;14.30;99.90;;;;;;4447858;32;20066;-65
2022/07/10 04:35:23;;;;;;;0.20;0.20;;;14.30;99.90;;;;;;4446254;32;20520;-65
2022/07/10 04:37:48;;;;;;;15.27;0.43;;;14.30;99.90;;;;;;4447469;32;20074;-65
2022/07/10 04:40:14;;;;;;;0.32;0.32;;;14.30;99.90;;;;;;4446419;32;20069;-65
2022/07/10 04:42:39;;;;;;;7.25;0.45;;;14.20;99.90;;;;;;4439929;32;20061;-65
2022/07/10 04:45:05;;;;;;;0.30;0.30;;;14.30;99.90;;;;;;4436579;32;20077;-65
2022/07/10 04:47:31;;;;;;;0.32;0.32;;;14.20;99.90;;;;;;4437663;32;20174;-65
2022/07/10 04:49:56;;;;;;;0.47;0.40;;;14.30;99.90;;;;;;4431513;32;20085;-65
2022/07/10 04:52:21;;;;;;;0.43;0.43;;;14.30;99.90;;;;;;4411739;32;20078;-65
2022/07/10 04:54:47;;;;;;;1.25;0.82;;;14.30;99.90;;;;;;4419621;32;20085;-65
2022/07/10 04:57:12;;;;;;;0.25;0.25;;;14.20;99.90;;;;;;4446920;32;20414;-65
2022/07/10 04:59:38;;;;;;;0.20;0.20;;;14.20;99.90;;;;;;4447462;32;20057;-66
2022/07/10 05:02:03;;;;;;;0.62;0.40;;;14.30;99.90;;;;;;4445846;32;20049;-65
2022/07/10 05:04:29;;;;;;;2.28;0.37;;;14.20;99.90;;;;;;4433220;32;20119;-65
2022/07/10 05:06:54;;;;;;;7.03;1.85;;;14.30;99.90;;;;;;4445998;32;20135;-65
2022/07/10 05:09:20;;;;;;;5.95;0.43;;;14.30;99.90;;;;;;4445778;32;20081;-65
2022/07/10 05:11:46;;;;;;;1.87;0.30;;;14.30;99.90;;;;;;4446299;32;20068;-65
2022/07/10 05:14:12;;;;;;;0.20;0.20;;;14.30;99.90;;;;;;4446286;32;20068;-65
2022/07/10 05:16:37;;;;;;;0.85;0.82;;;14.30;99.90;;;;;;4446120;32;20077;-65
2022/07/10 05:19:03;;;;;;;0.52;0.30;;;14.40;99.90;;;;;;4446794;32;20093;-65
2022/07/10 05:21:28;;;;;;;0.30;0.30;;;14.50;99.90;;;;;;4436095;32;20156;-64
2022/07/10 05:23:54;;;;;;;0.20;0.20;;;14.50;99.90;;;;;;4421138;32;20070;-65
2022/07/10 05:26:19;;;;;;;0.20;0.20;;;14.50;99.90;;;;;;4428457;32;20116;-64
2022/07/10 05:28:45;;;;;;;0.47;0.47;;;14.50;99.90;;;;;;4417705;32;20065;-65
2022/07/10 05:31:10;;;;;;;0.20;0.20;;;14.60;99.90;;;;;;4431342;32;20053;-65
2022/07/10 05:33:38;;;;;;;0.10;0.10;;;14.50;99.90;;;;;;4429614;32;20116;-65
2022/07/10 05:36:03;;;;;;;0.20;0.20;;;14.60;99.90;;;;;;4431419;32;20070;-65
2022/07/10 05:38:29;;;;;;;0.40;0.40;;;14.60;99.90;;;;;;4431193;32;20548;-65
2022/07/10 05:40:54;;;;;;;0.60;0.60;;;14.70;99.90;;;;;;4430079;32;20057;-65
2022/07/10 05:43:20;;;;;;;1.55;0.88;;;14.70;99.90;;;;;;4443190;32;20065;-65
2022/07/10 05:45:45;;;;;;;0.60;0.60;;;14.70;99.90;;;;;;4434358;32;20532;-65
2022/07/10 05:48:11;;;;;;;0.47;0.47;;;14.70;99.90;;;;;;4431033;32;20132;-64
2022/07/10 05:50:36;;;;;;;0.20;0.20;;;14.70;99.90;;;;;;4426077;32;20507;-65
2022/07/10 05:53:02;;;;;;;0.20;0.20;;;14.70;99.90;;;;;;4408883;32;20131;-65
2022/07/10 05:55:28;;;;;;;6.37;0.82;;;14.70;99.90;;;;;;4433386;32;20070;-65
2022/07/10 05:57:54;;;;;;;0.85;0.60;;;14.80;99.90;;;;;;4446412;32;20073;-65
2022/07/10 06:00:20;;;;;;;0.62;0.62;;;14.80;99.90;;;;;;4446616;32;20057;-65
2022/07/10 06:02:45;;;;;;;0.20;0.20;;;14.90;99.90;;;;;;4446000;32;20110;-65
2022/07/10 06:05:11;;;;;;;0.40;0.40;;;14.90;99.90;;;;;;4446224;32;20419;-65
2022/07/10 06:07:36;;;;;;;0.22;0.22;;;14.90;99.90;;;;;;4432020;32;20061;-65
2022/07/10 06:10:03;;;;;;;0.20;0.20;;;15.00;99.90;;;;;;4445822;32;20119;-65
2022/07/10 06:12:29;;;;;;;0.20;0.20;;;15.00;99.90;;;;;;4437757;32;20061;-65
2022/07/10 06:14:54;;;;;;;0.13;0.13;;;15.00;99.90;;;;;;4430732;32;20134;-65
2022/07/10 06:17:20;;;;;;;1.85;1.10;;;15.00;99.90;;;;;;4430395;32;20116;-65
2022/07/10 06:19:45;;;;;;;0.20;0.20;;;15.00;99.90;;;;;;4429768;32;20124;-65
2022/07/10 06:22:43;;;;;;;1.20;1.10;;;15.00;99.90;;;;;;4414608;32;20517;-65
2022/07/10 06:25:01;;;;;;;0.90;0.47;;;15.00;99.90;;;;;;4403032;32;20471;-65
2022/07/10 06:27:27;;;;;;;0.22;0.22;;;15.10;99.90;;;;;;4413886;32;20439;-65
2022/07/10 06:29:52;;;;;;;0.35;0.35;;;15.00;99.90;;;;;;4429666;32;20124;-65
2022/07/10 06:32:18;;;;;;;0.30;0.30;;;15.10;99.90;;;;;;4437106;32;20096;-65
2022/07/10 06:34:44;;;;;;;0.82;0.50;;;15.10;99.90;;;;;;4445387;32;20186;-65
2022/07/10 06:37:09;;;;;;;0.20;0.20;;;15.10;99.90;;;;;;4445722;32;20078;-65
2022/07/10 06:39:35;;;;;;;0.40;0.40;;;15.10;99.90;;;;;;4444044;32;20069;-65
2022/07/10 06:42:02;;;;;;;0.45;0.40;;;15.20;99.90;;;;;;4432171;32;20411;-65
2022/07/10 06:44:27;;;;;;;0.50;0.50;;;15.10;99.90;;;;;;4441776;32;20070;-65
2022/07/10 06:47:57;;;;;;;0.20;0.20;;;15.20;99.90;;;;;;4430124;32;20128;-65
2022/07/10 06:49:40;;;;;;;0.80;0.55;;;15.30;99.90;;;;;;4427922;32;20061;-65
2022/07/10 06:52:06;;;;;;;2.00;0.88;;;15.20;99.90;;;;;;4421211;32;20076;-65
2022/07/10 06:54:32;;;;;;;0.43;0.43;;;15.30;99.90;;;;;;4427989;32;20169;-65
2022/07/10 06:56:58;;;;;;;0.20;0.20;;;15.20;99.90;;;;;;4430804;32;20167;-65
2022/07/10 06:59:23;;;;;;;2.72;0.82;;;15.20;99.90;;;;;;4444262;32;20065;-65
2022/07/10 07:01:48;;;;;;;2.15;0.65;;;15.20;99.90;;;;;;4444396;32;20520;-65
2022/07/10 07:04:14;;;;;;;0.62;0.62;;;15.30;99.90;;;;;;4444660;32;20053;-65
2022/07/10 07:06:40;;;;;;;0.20;0.20;;;15.40;99.90;;;;;;4443902;32;20617;-65
2022/07/10 07:09:05;;;;;;;0.20;0.20;;;15.50;99.90;;;;;;4430276;32;20074;-65
2022/07/10 07:11:31;;;;;;;0.20;0.20;;;15.50;99.90;;;;;;4438563;32;20078;-65
2022/07/10 07:13:56;;;;;;;0.40;0.40;;;15.50;99.90;;;;;;4429491;32;20112;-65
2022/07/10 07:16:37;;;;;;;0.20;0.20;;;15.50;99.90;;;;;;4416398;32;20064;-65
2022/07/10 07:19:04;;;;;;;0.62;0.62;;;15.50;99.90;;;;;;4429155;32;20136;-65
2022/07/10 07:23:32;;;;;;;0.30;0.30;;;15.40;99.90;;;;;;4419787;32;20310;-65
2022/07/10 07:24:18;;;;;;;1.37;1.23;;;15.50;99.90;;;;;;4397799;32;20086;-64
2022/07/10 07:26:46;;;;;;;0.30;0.30;;;15.60;99.90;;;;;;4428445;32;20069;-65
2022/07/10 07:29:13;;;;;;;0.20;0.20;;;15.60;99.90;;;;;;4416238;32;20116;-65
2022/07/10 07:31:38;;;;;;;2.03;0.62;;;15.80;99.90;;;;;;4433633;32;20062;-65
2022/07/10 07:34:03;;;;;;;0.32;0.32;;;15.90;99.90;;;;;;4429086;32;20073;-66
2022/07/10 07:36:30;;;;;;;0.20;0.20;;;16.00;99.90;;;;;;4430368;32;20521;-66
2022/07/10 07:38:55;;;;;;;0.30;0.30;;;16.20;99.90;;;;;;4428355;32;20062;-65
2022/07/10 07:41:22;;;;;;;0.43;0.30;;;16.30;99.90;;;;;;4430296;32;20074;-66
2022/07/10 07:43:48;;;;;;;9.10;0.90;;;16.60;99.90;;;;;;4438995;32;20537;-65
2022/07/10 07:46:14;;;;;;;0.35;0.35;;;16.80;99.90;;;;;;4416443;32;20065;-65
2022/07/10 07:48:39;;;;;;;8.07;0.82;;;17.10;99.90;;;;;;4415193;32;20526;-65
2022/07/10 07:51:05;;;;;;;0.30;0.30;;;17.40;99.90;;;;;;4423430;32;20077;-65
2022/07/10 07:53:30;;;;;;;1.27;0.77;;;17.30;99.90;;;;;;4407785;32;20045;-65
2022/07/10 07:55:56;;;;;;;6.55;0.40;;;17.20;99.90;;;;;;4437531;32;20120;-65
2022/07/10 07:58:21;;;;;;;0.40;0.40;;;16.80;99.90;;;;;;4444781;32;20411;-64
2022/07/10 08:00:46;;;;;;;0.45;0.45;;;16.60;99.90;;;;;;4444857;32;20074;-65
2022/07/10 08:03:12;;;;;;;0.68;0.68;;;16.40;99.90;;;;;;4444439;32;20082;-65
2022/07/10 08:05:37;;;;;;;0.40;0.40;;;16.30;99.90;;;;;;4444732;32;20529;-65
2022/07/10 08:08:07;;;;;;;0.43;0.40;;;16.10;99.90;;;;;;4443774;32;20435;-65
2022/07/10 08:10:32;;;;;;;0.30;0.30;;;15.90;99.90;;;;;;4433828;32;20069;-65
2022/07/10 08:12:58;;;;;;;0.35;0.35;;;15.80;99.90;;;;;;4428738;32;20123;-65
2022/07/10 08:15:23;;;;;;;0.45;0.35;;;15.90;99.90;;;;;;4429541;32;20073;-65
2022/07/10 08:17:51;;;;;;;0.20;0.20;;;15.90;99.90;;;;;;4429804;32;20077;-65
2022/07/10 08:20:17;;;;;;;3.17;0.75;;;15.90;99.90;;;;;;4415180;32;20058;-65
2022/07/10 08:22:44;;;;;;;0.37;0.37;;;16.00;99.90;;;;;;4424415;32;20500;-65
2022/07/10 08:25:10;;;;;;;0.37;0.37;;;16.40;99.90;;;;;;4418057;32;20189;-65
2022/07/10 08:27:36;;;;;;;0.30;0.30;;;16.80;99.90;;;;;;4414739;32;20115;-66
2022/07/10 08:30:01;;;;;;;0.37;0.37;;;17.10;99.90;;;;;;4414869;32;20117;-65
2022/07/10 08:32:27;;;;;;;1.17;1.00;;;17.10;99.90;;;;;;4415211;32;20069;-65
2022/07/10 08:34:53;;;;;;;0.35;0.35;;;17.00;99.90;;;;;;4415875;32;20433;-65
2022/07/10 08:37:19;;;;;;;0.85;0.85;;;16.90;99.90;;;;;;4428313;32;20120;-65
2022/07/10 08:39:45;;;;;;;0.37;0.37;;;16.90;99.90;;;;;;4433699;32;20126;-65
2022/07/10 08:42:12;;;;;;;0.20;0.20;;;16.80;99.90;;;;;;4444732;32;20061;-65
2022/07/10 08:44:38;;;;;;;0.30;0.30;;;16.90;99.90;;;;;;4425479;32;20069;-65
2022/07/10 08:47:04;;;;;;;0.37;0.37;;;17.00;99.90;;;;;;4414164;32;20086;-66
2022/07/10 08:49:31;;;;;;;1.45;0.75;;;17.10;99.90;;;;;;4429531;32;20057;-65
2022/07/10 08:52:09;;;;;;;0.95;0.50;;;17.10;99.90;;;;;;4412582;32;20568;-65
2022/07/10 08:54:37;;;;;;;0.20;0.20;;;17.00;99.90;;;;;;4427544;32;20438;-65
2022/07/10 08:57:03;;;;;;;1.48;0.43;;;17.10;99.90;;;;;;4432835;32;20073;-65
2022/07/10 08:59:29;;;;;;;0.57;0.57;;;17.20;99.90;;;;;;4429473;32;20160;-65
2022/07/10 09:01:55;;;;;;;0.20;0.20;;;17.20;99.90;;;;;;4429163;32;20478;-65
2022/07/10 09:04:25;;;;;;;0.30;0.30;;;17.20;99.90;;;;;;4428273;32;20117;-65
2022/07/10 09:06:51;;;;;;;5.72;1.33;;;17.30;99.90;;;;;;4429350;32;20497;-65
2022/07/10 09:09:18;;;;;;;0.52;0.35;;;17.40;99.90;;;;;;4418585;32;20065;-65
2022/07/10 09:11:43;;;;;;;0.30;0.30;;;17.40;99.90;;;;;;4419848;32;20451;-65
2022/07/10 09:14:11;;;;;;;0.30;0.30;;;17.40;99.90;;;;;;4446962;32;20077;-65
2022/07/10 09:16:40;;;;;;;0.20;0.20;;;17.30;99.90;;;;;;4432337;32;20061;-65
2022/07/10 09:19:16;;;;;;;1.12;0.62;;;17.30;99.90;;;;;;4446394;32;20573;-65
2022/07/10 09:21:42;;;;;;;1.23;0.50;;;17.30;99.90;;;;;;4424496;32;20107;-65
2022/07/10 09:24:08;;;;;;;0.50;0.50;;;17.30;99.90;;;;;;4410706;32;20172;-65
2022/07/10 09:26:36;;;;;;;0.30;0.30;;;17.50;99.90;;;;;;4438256;32;20073;-65
2022/07/10 09:29:10;;;;;;;1.52;0.90;;;17.70;99.90;;;;;;4445525;32;20512;-66
2022/07/10 09:31:50;;;;;;;0.20;0.20;;;17.90;99.90;;;;;;4432802;32;20065;-66
2022/07/10 09:34:16;;;;;;;0.30;0.30;;;18.10;99.90;;;;;;4446927;32;20065;-66
2022/07/10 09:36:42;;;;;;;17.98;1.45;;;18.20;99.90;;;;;;4445775;32;20053;-66
2022/07/10 09:39:08;;;;;;;0.30;0.30;;;18.20;99.90;;;;;;4442392;32;20086;-66
2022/07/10 09:41:33;;;;;;;0.20;0.20;;;18.20;99.90;;;;;;4416456;32;20139;-66
2022/07/10 09:44:04;;;;;;;0.30;0.30;;;18.20;99.90;;;;;;4430446;32;20070;-66
2022/07/10 09:46:31;;;;;;;;;;;18.10;99.90;;;;;;4435885;32;20128;-66
2022/07/10 09:49:02;;;;;;;0.40;0.40;;;18.00;99.90;;;;;;4432037;32;19953;-65
2022/07/10 09:51:32;;;;;;;0.70;0.70;;;17.80;99.90;;;;;;4419574;32;20113;-65
2022/07/10 09:54:01;;;;;;;0.30;0.30;;;17.70;99.90;;;;;;4412278;32;20116;-65
2022/07/10 09:56:27;;;;;;;0.30;0.30;;;17.60;99.90;;;;;;4434835;32;20112;-65
2022/07/10 09:58:58;;;;;;;0.28;0.28;;;17.70;99.90;;;;;;4445451;32;20069;-66
2022/07/10 10:01:23;;;;;;;0.40;0.40;;;17.90;99.90;;;;;;4431726;32;20505;-65
2022/07/10 10:03:49;;;;;;;0.30;0.30;;;18.10;99.90;;;;;;4447339;32;20065;-65
2022/07/10 10:06:16;;;;;;;0.45;0.45;;;18.20;99.90;;;;;;4446260;32;20057;-65
2022/07/10 10:09:06;;;;;;;0.28;0.28;;;18.30;99.90;;;;;;4430969;32;20070;-65
2022/07/10 10:11:33;;;;;;;0.30;0.30;;;18.30;99.90;;;;;;4418276;32;20069;-66
2022/07/10 10:14:00;;;;;;;0.20;0.20;;;18.30;99.90;;;;;;4429680;32;20132;-65
2022/07/10 10:16:27;;;;;;;0.43;0.43;;;18.20;99.90;;;;;;4430916;32;20108;-66
2022/07/10 10:20:54;;;;;;;1.67;0.68;;;18.10;99.90;;;;;;4416286;32;20065;-65
2022/07/10 10:21:40;;;;;;;0.40;0.40;;;18.10;99.90;;;;;;4396798;32;20074;-65
2022/07/10 10:24:06;;;;;;;0.20;0.20;;;17.80;99.90;;;;;;4410104;32;20077;-65
2022/07/10 10:26:32;;;;;;;0.82;0.35;;;17.60;99.90;;;;;;4428187;32;20056;-65
2022/07/10 10:29:01;;;;;;;0.40;0.40;;;17.70;99.90;;;;;;4443689;32;20081;-66
2022/07/10 10:31:28;;;;;;;0.30;0.30;;;17.80;99.90;;;;;;4444628;32;20081;-66
2022/07/10 10:33:55;;;;;;;0.60;0.60;;;17.90;99.90;;;;;;4432253;32;20497;-65
2022/07/10 10:36:44;;;;;;;0.35;0.35;;;17.90;99.90;;;;;;4445116;32;20070;-65
2022/07/10 10:39:18;;;;;;;0.20;0.20;;;18.00;99.90;;;;;;4442812;32;20119;-65
2022/07/10 10:41:49;;;;;;;0.30;0.30;;;18.10;99.90;;;;;;4415678;32;20074;-65
2022/07/10 10:44:17;;;;;;;0.40;0.40;;;18.00;99.90;;;;;;4430265;32;20070;-65
2022/07/10 10:46:54;;;;;;;0.62;0.62;;;18.00;99.90;;;;;;4430104;32;20078;-65
2022/07/10 10:49:22;;;;;;;0.40;0.40;;;18.00;99.90;;;;;;4430509;32;20661;-65
2022/07/10 10:52:09;;;;;;;1.55;1.30;;;18.10;99.90;;;;;;4415795;32;20112;-65
2022/07/10 10:54:57;;;;;;;2.90;0.47;;;18.00;99.90;;;;;;4401469;32;20116;-65
2022/07/10 10:57:36;;;;;;;0.40;0.40;;;18.00;99.90;;;;;;4426298;32;20066;-65
2022/07/10 11:00:07;;;;;;;0.40;0.40;;;18.00;99.90;;;;;;4430179;32;20057;-65
2022/07/10 11:02:36;;;;;;;1.50;1.05;;;18.10;99.90;;;;;;4429972;32;20069;-65
2022/07/10 11:05:20;;;;;;;0.30;0.30;;;18.30;99.90;;;;;;4430280;32;20069;-65
2022/07/10 11:07:55;;;;;;;0.43;0.43;;;18.40;99.90;;;;;;4428737;32;20074;-65
2022/07/10 11:10:28;;;;;;;6.55;1.23;;;18.50;99.90;;;;;;4440507;32;20186;-65
2022/07/10 11:12:59;;;;;;;3.05;1.50;;;18.60;99.90;;;;;;4428714;32;20061;-65
2022/07/10 11:15:26;;;;;;;0.60;0.60;;;18.80;99.90;;;;;;4429003;32;20066;-65
2022/07/10 11:17:52;;;;;;;0.20;0.20;;;19.50;99.60;;;;;;4415327;32;20057;-66
2022/07/10 11:20:18;;;;;;;3.95;0.80;;;19.90;98.70;;;;;;4428755;32;20144;-65
2022/07/10 11:22:54;;;;;;;0.40;0.40;;;20.10;97.60;;;;;;4409104;32;20065;-65
2022/07/10 11:25:45;;;;;;;0.30;0.30;;;19.90;97.10;;;;;;4419070;32;20081;-65
2022/07/10 11:28:12;;;;;;;5.87;0.80;;;19.40;97.90;;;;;;4428840;32;20085;-66
2022/07/10 11:30:48;;;;;;;0.52;0.52;;;19.20;98.30;;;;;;4415251;32;20062;-65
2022/07/10 11:33:15;;;;;;;0.68;0.68;;;19.20;98.80;;;;;;4428510;32;20070;-65
2022/07/10 11:35:40;;;;;;;0.35;0.35;;;19.00;98.70;;;;;;4429327;32;20489;-66
2022/07/10 11:38:06;;;;;;;0.85;0.80;;;18.90;99.10;;;;;;4429180;32;20082;-66
2022/07/10 11:40:36;;;;;;;0.47;0.47;;;18.80;99.20;;;;;;4440878;32;20462;-65
2022/07/10 11:43:04;;;;;;;0.30;0.30;;;18.60;99.40;;;;;;4432416;32;20138;-65
2022/07/10 11:45:32;;;;;;;0.20;0.20;;;18.50;99.90;;;;;;4429292;32;20191;-66
2022/07/10 11:47:58;;;;;;;0.70;0.40;;;18.40;99.90;;;;;;4429156;32;20076;-65
2022/07/10 11:50:24;;;;;;;0.20;0.20;;;18.50;99.90;;;;;;4428413;32;20431;-65
2022/07/10 11:52:50;;;;;;;0.30;0.30;;;18.50;99.90;;;;;;4407562;32;20053;-65
2022/07/10 11:55:19;;;;;;;2.30;0.68;;;18.40;99.90;;;;;;4418215;32;20426;-66
2022/07/10 11:57:48;;;;;;;0.60;0.60;;;18.50;99.90;;;;;;4428684;32;20485;-65
2022/07/10 12:00:23;;;;;;;13.27;0.98;;;18.70;99.90;;;;;;4430228;32;20057;-66
2022/07/10 12:02:49;;;;;;;0.52;0.30;;;19.30;99.20;;;;;;4428794;32;20418;-66
2022/07/10 12:05:36;;;;;;;4.03;1.40;;;19.70;99.10;;;;;;4428938;32;20069;-66
2022/07/10 12:08:02;;;;;;;1.62;0.57;;;19.70;97.60;;;;;;4418283;32;20474;-66
2022/07/10 12:10:28;;;;;;;2.37;0.50;;;19.50;97.70;;;;;;4405236;32;20182;-66
2022/07/10 12:13:04;;;;;;;3.37;0.40;;;19.70;97.70;;;;;;4415995;32;20054;-66
2022/07/10 12:15:34;;;;;;;0.22;0.22;;;19.60;97.40;;;;;;4428733;32;20082;-65
2022/07/10 12:17:59;;;;;;;0.20;0.20;;;19.60;97.80;;;;;;4414293;32;20512;-65
2022/07/10 12:20:26;;;;;;;0.73;0.68;;;19.60;97.40;;;;;;4428448;32;20065;-65
2022/07/10 12:22:54;;;;;;;0.20;0.20;;;19.70;99.10;;;;;;4395367;32;20061;-65
2022/07/10 12:25:20;;;;;;;0.30;0.30;;;19.80;98.40;;;;;;4417409;32;20081;-65
2022/07/10 12:27:45;;;;;;;0.65;0.65;;;20.00;97.70;;;;;;4431753;32;20077;-65
2022/07/10 12:30:11;;;;;;;0.30;0.30;;;20.20;96.50;;;;;;4437585;32;20062;-65
2022/07/10 12:32:37;;;;;;;0.20;0.20;;;20.30;96.70;;;;;;4433483;32;20119;-65
2022/07/10 12:35:03;;;;;;;0.65;0.30;;;20.40;96.40;;;;;;4444214;32;20320;-65
2022/07/10 12:37:28;;;;;;;0.20;0.20;;;20.30;96.10;;;;;;4443777;32;20508;-65
2022/07/10 12:39:54;;;;;;;0.45;0.45;;;20.10;96.10;;;;;;4442362;32;20118;-65
2022/07/10 12:42:28;;;;;;;0.62;0.62;;;20.00;96.20;;;;;;4443133;32;20077;-65
2022/07/10 12:44:54;;;;;;;0.25;0.25;;;20.10;95.90;;;;;;4441757;32;20070;-66
2022/07/10 12:47:21;;;;;;;0.40;0.40;;;20.30;96.30;;;;;;4430948;32;20073;-66